Terminal Aerodrome Forecast
Issued by NWS

Home | Current Version | Previous Version | Text Only | Print | Product List | Glossary On
Versions: 1 2 3 4 5 6 7 8 9 10 11 12 13 14 15
000
FTUS44 KLIX 191700 RRA
TAFMSY
TAF
KMSY 191740Z 1918/2018 06008KT 5SM -RA BKN007 BKN025 OVC040
      TEMPO 1918/1922 3SM SHRA BKN005
     FM192200 06010KT 5SM -SHRA OVC010
      TEMPO 1922/2001 2SM SHRA OVC008
     FM200600 06008KT P6SM OVC008
     FM201400 02009KT P6SM OVC008=

USA.gov is the U.S. government's official web portal to all federal, state and local government web resources and services.